Lingen, Germany

04:38 PM CEST die 27o March, anno 2017 (GMT +0200)
Hummelweg | | Change Station

Elev 91 ft 52.51 °N, 7.29 °E | Updated 5 minutes ago

Serena
Serena
68.4 °F
Feels Like 68.4 °F
N
0.6
Ventus Variabilis Ventus from Inter Aquilonem et Eurum
Gusts 1.9 mph

Hodie
High -- | Low -- °F
--% Chance of Precip.
Yesterday
High -- | Low -- °F
Precip. -- in
Pressio 30.21 in
Visibilitas 6.2 milia passuum
Clouds Few 23000 ft
Frigus in quo Ros apparet 38 °F
Umor 33%
Rainfall 0.00 in
Snow Depth Not available.
7:16 AM 7:56 PM
Waning Crescent, 0% visible
METAR ETWM 271420Z 10001KT 9999 FEW230 18/M01 Q1023 BLU+
Pressio 30.21 in
Visibilitas 6.2 milia passuum
Clouds Few 23000 ft
Frigus in quo Ros apparet 38 °F
Umor 33%
Rainfall 0.00 in
Snow Depth Not available.
7:16 AM 7:56 PM
Waning Crescent, 0% visible
METAR ETWM 271420Z 10001KT 9999 FEW230 18/M01 Q1023 BLU+

Get Severe Weather Alerts

Thanks for signing up!

Be on the lookout for a verification email in your inbox.

You'll start receiving the daily forecast at 8 AM.

×

10-Day Weather Forecast

×

Almanac

Astronomy

Mar. 27, 2017 Rise Set
Actual Time
Civil Twilight
Nautical Twilight
Astronomical Twilight
Moon
Length Of Visible Light
Length of Day
Tomorrow will be .
, % of the Moon is Illuminated

Today's Extremes

Country Highs Country Lows

Community

WunderPhotos

Upload Photos

1,962,540 photos uploaded!

WunderBlog® & News

Nearby

Air Quality

  Air Quality AQ Index Pollutant
Not available.

Snow Depth

Station Depth Elevation

Earthquake Activity

City Distance Mag. Time & Date
Minimum magnitude displayed is 2.5.

Earthquake Activity

City Distance Mag. Time & Date
Minimum magnitude displayed is 2.5.

Coastal Water Temperatures

Locus Calor

Stations

Nearby Weather Stations

Station Location Temp Frigus Venti Frigus in quo Ros apparet Umor Ventus Precip. Elev Renovata Type